Millenium Air

Millenium Air Since 1998



 METAR AND TAF INFORMATION
METAR FOR LIBD
ADDS - METARS form results

(1534 UTC 29 May 2020)
Data provider http://aviationweather.gov/metar/data/
 
METAR text: LIBD 291520Z 03005KT 350V060 CAVOK 21/09 Q1017
Conditions at: LIBD (BARI/PALESE MACC, IT) observed 1520 UTC 29 May 2020
Temperature: 21.0°C (70°F)
Dewpoint: 9.0°C (48°F) [RH = 46%]
Pressure (altimeter): 30.03 inches Hg (1017.0 mb)
Winds: from the NNE (30 degrees) at 6 MPH (5 knots; 2.6 m/s)
Visibility: 6 or more miles (10+ km)
Ceiling: ceiling and visibility are OK
Clouds: unknown
Weather: no significant weather observed at this time

METAR text: LIBD 291450Z 02006KT 310V060 CAVOK 21/09 Q1017
Conditions at: LIBD (BARI/PALESE MACC, IT) observed 1450 UTC 29 May 2020
Temperature: 21.0°C (70°F)
Dewpoint: 9.0°C (48°F) [RH = 46%]
Pressure (altimeter): 30.03 inches Hg (1017.0 mb)
Winds: from the NNE (20 degrees) at 7 MPH (6 knots; 3.1 m/s)
Visibility: 6 or more miles (10+ km)
Ceiling: ceiling and visibility are OK
Clouds: unknown
Weather: no significant weather observed at this time

Forecast for: LIBD (BARI/PALESE MACC, IT)
Text: TAF LIBD 291100Z 2912/3012 35010KT 9999 SCT030
Forecast period: 1200 to 1700 UTC 29 May 2020
Forecast type: FROM: standard forecast or significant change
Winds: from the N (350 degrees) at 12 MPH (10 knots; 5.1 m/s)
Visibility: 6 or more miles 10+ km)
Ceiling: at least 12,000 feet AGL
Clouds: scattered clouds at 3000 feet AGL
Weather: no significant weather forecast for this period
Text: BECMG 2917/2919 VRB05KT
Forecast period: 1700 UTC 29 May 2020 to 1200 UTC 30 May 2020
Forecast type: BECOMING: Conditions expected to become as follows by 1900 UTC 29 May 2020
Winds: variable direction winds at 6 MPH (5 knots; 2.6 m/s)
Visibility: 6 or more miles 10+ km)
Ceiling: at least 12,000 feet AGL
Clouds: scattered clouds at 3000 feet AGL
Weather: no significant weather forecast for this period
Text: TEMPO 3006/3012 TSRA
Forecast period: 0600 to 1200 UTC 30 May 2020
Forecast type: TEMPORARY: The following changes expected for less than half the time period
Visibility: missing
Ceiling: unknown
Clouds: missing
Weather: TSRA  (rain associated with thunderstorm(s))

 AIRPORT MAP

 RUNWAY INFORMATION
Runway 07 Runway length 8005 ft Runway width 148 ft
Runway elevation 177 ft Runway displaced threshold 0 ft Runway heading 69
Runway 25 Runway length 8005 ft Runway width 148 ft
Runway elevation 108 ft Runway displaced threshold 0 ft Runway heading 249
Runway 12 Runway length 5512 ft Runway width 164 ft
Runway elevation 108 ft Runway displaced threshold 0 ft Runway heading 123
Runway 30 Runway length 5512 ft Runway width 164 ft
Runway elevation 108 ft Runway displaced threshold 0 ft Runway heading 303

 AIRPORT FREQUENCIES
Type APP Name APP Frequency 119.5 MHZ
Type TWR Name TWR Frequency 118.3 MHZ

 AIRPORT NEAR NAVIGATION AIDS
Type VOR-DME Name Bari Frequency 116400 KHZ